sensor_id;sensor_type;location;lat;lon;timestamp;P1;durP1;ratioP1;P2;durP2;ratioP2
11675;SDS011;5894;42.768;23.404;2024-02-21T00:00:15;10.63;;;7.53;;
11675;SDS011;5894;42.768;23.404;2024-02-21T00:02:43;10.57;;;6.83;;
11675;SDS011;5894;42.768;23.404;2024-02-21T00:05:10;7.77;;;6.43;;
11675;SDS011;5894;42.768;23.404;2024-02-21T00:07:37;9.50;;;6.60;;
11675;SDS011;5894;42.768;23.404;2024-02-21T00:10:04;7.97;;;6.13;;
11675;SDS011;5894;42.768;23.404;2024-02-21T00:12:32;8.87;;;6.80;;
11675;SDS011;5894;42.768;23.404;2024-02-21T00:15:01;9.47;;;7.30;;
11675;SDS011;5894;42.768;23.404;2024-02-21T00:17:29;9.53;;;6.90;;
11675;SDS011;5894;42.768;23.404;2024-02-21T00:19:56;10.20;;;7.23;;
11675;SDS011;5894;42.768;23.404;2024-02-21T00:22:23;9.67;;;7.20;;
11675;SDS011;5894;42.768;23.404;2024-02-21T00:24:50;10.67;;;7.47;;
11675;SDS011;5894;42.768;23.404;2024-02-21T00:27:17;9.33;;;7.03;;
11675;SDS011;5894;42.768;23.404;2024-02-21T00:29:44;11.90;;;7.77;;
11675;SDS011;5894;42.768;23.404;2024-02-21T00:32:12;10.93;;;7.60;;
11675;SDS011;5894;42.768;23.404;2024-02-21T00:34:39;10.57;;;7.23;;
11675;SDS011;5894;42.768;23.404;2024-02-21T00:37:06;11.80;;;7.63;;
11675;SDS011;5894;42.768;23.404;2024-02-21T00:39:33;13.00;;;7.90;;
11675;SDS011;5894;42.768;23.404;2024-02-21T00:42:00;12.13;;;8.17;;
11675;SDS011;5894;42.768;23.404;2024-02-21T00:44:27;9.97;;;7.60;;
11675;SDS011;5894;42.768;23.404;2024-02-21T00:46:54;11.23;;;7.97;;
11675;SDS011;5894;42.768;23.404;2024-02-21T00:49:23;10.83;;;7.57;;
11675;SDS011;5894;42.768;23.404;2024-02-21T00:51:50;8.70;;;6.93;;
11675;SDS011;5894;42.768;23.404;2024-02-21T00:54:17;9.03;;;6.77;;
11675;SDS011;5894;42.768;23.404;2024-02-21T00:56:44;9.50;;;7.00;;
11675;SDS011;5894;42.768;23.404;2024-02-21T00:59:10;9.63;;;7.23;;
11675;SDS011;5894;42.768;23.404;2024-02-21T01:01:38;10.87;;;7.83;;
11675;SDS011;5894;42.768;23.404;2024-02-21T01:04:07;10.53;;;7.97;;
11675;SDS011;5894;42.768;23.404;2024-02-21T01:06:35;9.70;;;7.43;;
11675;SDS011;5894;42.768;23.404;2024-02-21T01:09:02;10.37;;;7.27;;
11675;SDS011;5894;42.768;23.404;2024-02-21T01:11:29;8.93;;;6.60;;
11675;SDS011;5894;42.768;23.404;2024-02-21T01:13:56;8.80;;;6.77;;
11675;SDS011;5894;42.768;23.404;2024-02-21T01:16:23;7.63;;;6.20;;
11675;SDS011;5894;42.768;23.404;2024-02-21T01:18:50;10.20;;;6.67;;
11675;SDS011;5894;42.768;23.404;2024-02-21T01:21:17;8.73;;;6.53;;
11675;SDS011;5894;42.768;23.404;2024-02-21T01:23:45;9.50;;;7.13;;
11675;SDS011;5894;42.768;23.404;2024-02-21T01:26:12;9.63;;;7.00;;
11675;SDS011;5894;42.768;23.404;2024-02-21T01:28:40;9.03;;;7.17;;
11675;SDS011;5894;42.768;23.404;2024-02-21T01:31:08;9.90;;;6.87;;
11675;SDS011;5894;42.768;23.404;2024-02-21T01:33:34;9.73;;;7.00;;
11675;SDS011;5894;42.768;23.404;2024-02-21T01:36:03;9.20;;;7.07;;
11675;SDS011;5894;42.768;23.404;2024-02-21T01:38:32;8.93;;;7.07;;
11675;SDS011;5894;42.768;23.404;2024-02-21T01:41:00;13.63;;;9.23;;
11675;SDS011;5894;42.768;23.404;2024-02-21T01:43:28;20.57;;;10.90;;
11675;SDS011;5894;42.768;23.404;2024-02-21T01:45:55;16.13;;;10.20;;
11675;SDS011;5894;42.768;23.404;2024-02-21T01:48:23;12.93;;;8.67;;
11675;SDS011;5894;42.768;23.404;2024-02-21T01:50:51;9.50;;;7.60;;
11675;SDS011;5894;42.768;23.404;2024-02-21T01:53:21;9.10;;;7.87;;
11675;SDS011;5894;42.768;23.404;2024-02-21T01:55:49;8.57;;;7.50;;
11675;SDS011;5894;42.768;23.404;2024-02-21T01:58:18;14.03;;;7.83;;
11675;SDS011;5894;42.768;23.404;2024-02-21T02:00:46;10.07;;;7.60;;
11675;SDS011;5894;42.768;23.404;2024-02-21T02:03:14;9.13;;;7.20;;
11675;SDS011;5894;42.768;23.404;2024-02-21T02:05:43;9.47;;;7.27;;
11675;SDS011;5894;42.768;23.404;2024-02-21T02:08:12;8.70;;;7.17;;
11675;SDS011;5894;42.768;23.404;2024-02-21T02:10:40;8.73;;;7.27;;
11675;SDS011;5894;42.768;23.404;2024-02-21T02:13:08;9.33;;;7.00;;
11675;SDS011;5894;42.768;23.404;2024-02-21T02:15:40;9.80;;;7.13;;
11675;SDS011;5894;42.768;23.404;2024-02-21T02:18:07;8.03;;;6.77;;
11675;SDS011;5894;42.768;23.404;2024-02-21T02:20:35;9.90;;;7.57;;
11675;SDS011;5894;42.768;23.404;2024-02-21T02:23:03;10.60;;;7.20;;
11675;SDS011;5894;42.768;23.404;2024-02-21T02:25:36;9.33;;;6.83;;
11675;SDS011;5894;42.768;23.404;2024-02-21T02:28:03;8.07;;;6.57;;
11675;SDS011;5894;42.768;23.404;2024-02-21T02:30:31;9.53;;;7.07;;
11675;SDS011;5894;42.768;23.404;2024-02-21T02:32:59;8.87;;;6.90;;
11675;SDS011;5894;42.768;23.404;2024-02-21T02:35:26;10.10;;;7.53;;
11675;SDS011;5894;42.768;23.404;2024-02-21T02:37:53;10.47;;;7.63;;
11675;SDS011;5894;42.768;23.404;2024-02-21T02:40:20;9.90;;;7.80;;
11675;SDS011;5894;42.768;23.404;2024-02-21T02:42:48;10.03;;;7.50;;
11675;SDS011;5894;42.768;23.404;2024-02-21T02:45:16;24.80;;;15.87;;
11675;SDS011;5894;42.768;23.404;2024-02-21T02:47:43;32.53;;;19.40;;
11675;SDS011;5894;42.768;23.404;2024-02-21T02:50:11;23.47;;;15.10;;
11675;SDS011;5894;42.768;23.404;2024-02-21T02:52:38;20.80;;;12.90;;
11675;SDS011;5894;42.768;23.404;2024-02-21T02:55:06;17.70;;;11.60;;
11675;SDS011;5894;42.768;23.404;2024-02-21T02:57:34;14.27;;;10.17;;
11675;SDS011;5894;42.768;23.404;2024-02-21T03:00:02;24.70;;;15.80;;
11675;SDS011;5894;42.768;23.404;2024-02-21T03:02:32;18.43;;;12.60;;
11675;SDS011;5894;42.768;23.404;2024-02-21T03:04:59;16.37;;;11.00;;
11675;SDS011;5894;42.768;23.404;2024-02-21T03:07:25;16.47;;;11.20;;
11675;SDS011;5894;42.768;23.404;2024-02-21T03:09:52;16.33;;;11.67;;
11675;SDS011;5894;42.768;23.404;2024-02-21T03:12:19;15.97;;;10.70;;
11675;SDS011;5894;42.768;23.404;2024-02-21T03:14:52;12.47;;;9.63;;
11675;SDS011;5894;42.768;23.404;2024-02-21T03:17:21;14.93;;;9.23;;
11675;SDS011;5894;42.768;23.404;2024-02-21T03:19:48;9.40;;;7.57;;
11675;SDS011;5894;42.768;23.404;2024-02-21T03:22:15;10.30;;;8.03;;
11675;SDS011;5894;42.768;23.404;2024-02-21T03:24:42;13.57;;;8.67;;
11675;SDS011;5894;42.768;23.404;2024-02-21T03:27:10;10.83;;;8.10;;
11675;SDS011;5894;42.768;23.404;2024-02-21T03:29:37;11.37;;;8.20;;
11675;SDS011;5894;42.768;23.404;2024-02-21T03:32:04;11.10;;;8.40;;
11675;SDS011;5894;42.768;23.404;2024-02-21T03:34:32;9.90;;;7.83;;
11675;SDS011;5894;42.768;23.404;2024-02-21T03:36:59;10.10;;;7.87;;
11675;SDS011;5894;42.768;23.404;2024-02-21T03:39:26;10.67;;;8.50;;
11675;SDS011;5894;42.768;23.404;2024-02-21T03:41:53;11.43;;;8.33;;
11675;SDS011;5894;42.768;23.404;2024-02-21T03:44:20;10.97;;;8.37;;
11675;SDS011;5894;42.768;23.404;2024-02-21T03:46:47;10.03;;;7.67;;
11675;SDS011;5894;42.768;23.404;2024-02-21T03:49:14;10.00;;;7.40;;
11675;SDS011;5894;42.768;23.404;2024-02-21T03:51:42;10.67;;;7.43;;
11675;SDS011;5894;42.768;23.404;2024-02-21T03:54:09;9.10;;;7.07;;
11675;SDS011;5894;42.768;23.404;2024-02-21T03:56:37;9.17;;;6.87;;
11675;SDS011;5894;42.768;23.404;2024-02-21T03:59:05;9.27;;;6.90;;
11675;SDS011;5894;42.768;23.404;2024-02-21T04:01:33;9.00;;;6.53;;
11675;SDS011;5894;42.768;23.404;2024-02-21T04:04:00;8.53;;;7.00;;
11675;SDS011;5894;42.768;23.404;2024-02-21T04:06:28;9.23;;;7.43;;
11675;SDS011;5894;42.768;23.404;2024-02-21T04:08:56;10.97;;;8.60;;
11675;SDS011;5894;42.768;23.404;2024-02-21T04:11:24;11.77;;;9.00;;
11675;SDS011;5894;42.768;23.404;2024-02-21T04:13:50;12.23;;;8.60;;
11675;SDS011;5894;42.768;23.404;2024-02-21T04:16:17;11.00;;;8.57;;
11675;SDS011;5894;42.768;23.404;2024-02-21T04:18:44;12.03;;;9.43;;
11675;SDS011;5894;42.768;23.404;2024-02-21T04:21:14;15.80;;;10.43;;
11675;SDS011;5894;42.768;23.404;2024-02-21T04:23:41;13.40;;;10.00;;
11675;SDS011;5894;42.768;23.404;2024-02-21T04:26:10;13.80;;;10.30;;
11675;SDS011;5894;42.768;23.404;2024-02-21T04:28:37;14.77;;;10.37;;
11675;SDS011;5894;42.768;23.404;2024-02-21T04:31:04;12.97;;;9.60;;
11675;SDS011;5894;42.768;23.404;2024-02-21T04:33:32;14.30;;;10.13;;
11675;SDS011;5894;42.768;23.404;2024-02-21T04:35:59;14.23;;;10.00;;
11675;SDS011;5894;42.768;23.404;2024-02-21T04:38:26;14.40;;;10.77;;
11675;SDS011;5894;42.768;23.404;2024-02-21T04:40:54;13.80;;;10.73;;
11675;SDS011;5894;42.768;23.404;2024-02-21T04:43:25;15.67;;;11.50;;
11675;SDS011;5894;42.768;23.404;2024-02-21T04:45:52;14.70;;;11.37;;
11675;SDS011;5894;42.768;23.404;2024-02-21T04:48:19;14.57;;;11.17;;
11675;SDS011;5894;42.768;23.404;2024-02-21T04:50:46;14.97;;;11.27;;
11675;SDS011;5894;42.768;23.404;2024-02-21T04:53:13;14.00;;;10.57;;
11675;SDS011;5894;42.768;23.404;2024-02-21T04:55:40;15.17;;;10.10;;
11675;SDS011;5894;42.768;23.404;2024-02-21T04:58:07;13.03;;;9.97;;
11675;SDS011;5894;42.768;23.404;2024-02-21T05:00:35;14.73;;;11.13;;
11675;SDS011;5894;42.768;23.404;2024-02-21T05:03:02;17.50;;;13.57;;
11675;SDS011;5894;42.768;23.404;2024-02-21T05:05:30;19.30;;;14.57;;
11675;SDS011;5894;42.768;23.404;2024-02-21T05:07:57;25.63;;;18.57;;
11675;SDS011;5894;42.768;23.404;2024-02-21T05:10:23;21.83;;;16.40;;
11675;SDS011;5894;42.768;23.404;2024-02-21T05:12:50;27.97;;;18.57;;
11675;SDS011;5894;42.768;23.404;2024-02-21T05:15:17;24.30;;;18.90;;
11675;SDS011;5894;42.768;23.404;2024-02-21T05:17:46;22.30;;;17.53;;
11675;SDS011;5894;42.768;23.404;2024-02-21T05:20:13;24.30;;;18.10;;
11675;SDS011;5894;42.768;23.404;2024-02-21T05:22:40;29.57;;;19.90;;
11675;SDS011;5894;42.768;23.404;2024-02-21T05:25:07;23.77;;;17.03;;
11675;SDS011;5894;42.768;23.404;2024-02-21T05:27:34;34.30;;;20.37;;
11675;SDS011;5894;42.768;23.404;2024-02-21T05:30:04;47.53;;;25.67;;
11675;SDS011;5894;42.768;23.404;2024-02-21T05:32:33;59.87;;;30.30;;
11675;SDS011;5894;42.768;23.404;2024-02-21T05:35:01;62.33;;;33.00;;
11675;SDS011;5894;42.768;23.404;2024-02-21T05:37:28;54.50;;;28.73;;
11675;SDS011;5894;42.768;23.404;2024-02-21T05:39:55;38.87;;;21.67;;
11675;SDS011;5894;42.768;23.404;2024-02-21T05:42:22;28.67;;;18.27;;
11675;SDS011;5894;42.768;23.404;2024-02-21T05:44:49;23.63;;;15.53;;
11675;SDS011;5894;42.768;23.404;2024-02-21T05:47:16;21.53;;;13.47;;
11675;SDS011;5894;42.768;23.404;2024-02-21T05:49:45;20.17;;;12.33;;
11675;SDS011;5894;42.768;23.404;2024-02-21T05:52:14;16.27;;;11.77;;
11675;SDS011;5894;42.768;23.404;2024-02-21T05:54:41;20.77;;;16.07;;
11675;SDS011;5894;42.768;23.404;2024-02-21T05:57:08;23.07;;;17.60;;
11675;SDS011;5894;42.768;23.404;2024-02-21T05:59:37;24.30;;;18.77;;
11675;SDS011;5894;42.768;23.404;2024-02-21T06:02:05;22.10;;;16.97;;
11675;SDS011;5894;42.768;23.404;2024-02-21T06:04:32;21.47;;;16.37;;
11675;SDS011;5894;42.768;23.404;2024-02-21T06:06:59;20.83;;;16.40;;
11675;SDS011;5894;42.768;23.404;2024-02-21T06:09:27;24.80;;;18.83;;
11675;SDS011;5894;42.768;23.404;2024-02-21T06:11:54;24.13;;;18.63;;
11675;SDS011;5894;42.768;23.404;2024-02-21T06:14:21;23.53;;;16.97;;
11675;SDS011;5894;42.768;23.404;2024-02-21T06:16:48;21.43;;;15.73;;
11675;SDS011;5894;42.768;23.404;2024-02-21T06:19:15;21.67;;;15.60;;
11675;SDS011;5894;42.768;23.404;2024-02-21T06:21:42;24.87;;;16.03;;
11675;SDS011;5894;42.768;23.404;2024-02-21T06:24:09;18.17;;;13.30;;
11675;SDS011;5894;42.768;23.404;2024-02-21T06:26:39;19.27;;;13.70;;
11675;SDS011;5894;42.768;23.404;2024-02-21T06:29:06;17.70;;;13.37;;
11675;SDS011;5894;42.768;23.404;2024-02-21T06:31:34;21.50;;;15.93;;
11675;SDS011;5894;42.768;23.404;2024-02-21T06:34:01;22.90;;;17.10;;
11675;SDS011;5894;42.768;23.404;2024-02-21T06:36:30;20.37;;;15.87;;
11675;SDS011;5894;42.768;23.404;2024-02-21T06:38:58;26.10;;;17.10;;
11675;SDS011;5894;42.768;23.404;2024-02-21T06:41:25;27.37;;;19.23;;
11675;SDS011;5894;42.768;23.404;2024-02-21T06:43:53;24.53;;;18.10;;
11675;SDS011;5894;42.768;23.404;2024-02-21T06:46:25;25.30;;;17.13;;
11675;SDS011;5894;42.768;23.404;2024-02-21T06:48:54;22.30;;;16.50;;
11675;SDS011;5894;42.768;23.404;2024-02-21T06:51:21;21.27;;;14.93;;
11675;SDS011;5894;42.768;23.404;2024-02-21T06:53:49;21.13;;;14.73;;
11675;SDS011;5894;42.768;23.404;2024-02-21T06:56:16;17.83;;;13.23;;
11675;SDS011;5894;42.768;23.404;2024-02-21T06:58:43;17.30;;;12.67;;
11675;SDS011;5894;42.768;23.404;2024-02-21T07:01:11;17.07;;;12.63;;
11675;SDS011;5894;42.768;23.404;2024-02-21T07:03:38;17.80;;;13.57;;
11675;SDS011;5894;42.768;23.404;2024-02-21T07:06:05;16.23;;;12.83;;
11675;SDS011;5894;42.768;23.404;2024-02-21T07:08:32;18.53;;;13.73;;
11675;SDS011;5894;42.768;23.404;2024-02-21T07:10:59;18.90;;;13.70;;
11675;SDS011;5894;42.768;23.404;2024-02-21T07:13:26;19.73;;;13.10;;
11675;SDS011;5894;42.768;23.404;2024-02-21T07:15:53;17.60;;;13.23;;
11675;SDS011;5894;42.768;23.404;2024-02-21T07:18:22;17.63;;;13.73;;
11675;SDS011;5894;42.768;23.404;2024-02-21T07:20:50;19.53;;;14.60;;
11675;SDS011;5894;42.768;23.404;2024-02-21T07:23:18;21.63;;;15.03;;
11675;SDS011;5894;42.768;23.404;2024-02-21T07:25:45;22.47;;;15.97;;
11675;SDS011;5894;42.768;23.404;2024-02-21T07:28:12;22.53;;;17.07;;
11675;SDS011;5894;42.768;23.404;2024-02-21T07:30:39;31.67;;;22.37;;
11675;SDS011;5894;42.768;23.404;2024-02-21T07:33:06;27.37;;;19.37;;
11675;SDS011;5894;42.768;23.404;2024-02-21T07:35:35;22.60;;;16.70;;
11675;SDS011;5894;42.768;23.404;2024-02-21T07:38:03;21.40;;;16.20;;
11675;SDS011;5894;42.768;23.404;2024-02-21T08:02:09;19.67;;;16.17;;
11675;SDS011;5894;42.768;23.404;2024-02-21T08:04:36;21.90;;;15.73;;
11675;SDS011;5894;42.768;23.404;2024-02-21T08:07:04;18.33;;;14.27;;
11675;SDS011;5894;42.768;23.404;2024-02-21T08:09:31;17.53;;;14.43;;
11675;SDS011;5894;42.768;23.404;2024-02-21T08:11:58;19.63;;;15.00;;
11675;SDS011;5894;42.768;23.404;2024-02-21T08:14:25;17.13;;;13.73;;
11675;SDS011;5894;42.768;23.404;2024-02-21T08:16:51;19.57;;;14.43;;
11675;SDS011;5894;42.768;23.404;2024-02-21T08:19:22;18.60;;;14.00;;
11675;SDS011;5894;42.768;23.404;2024-02-21T08:21:48;18.10;;;13.23;;
11675;SDS011;5894;42.768;23.404;2024-02-21T08:24:15;18.87;;;13.90;;
11675;SDS011;5894;42.768;23.404;2024-02-21T08:26:43;17.93;;;14.33;;
11675;SDS011;5894;42.768;23.404;2024-02-21T08:29:11;17.30;;;13.40;;
11675;SDS011;5894;42.768;23.404;2024-02-21T08:31:38;20.90;;;15.17;;
11675;SDS011;5894;42.768;23.404;2024-02-21T08:34:05;17.23;;;13.80;;
11675;SDS011;5894;42.768;23.404;2024-02-21T08:36:34;19.47;;;15.40;;
11675;SDS011;5894;42.768;23.404;2024-02-21T08:39:02;17.73;;;13.63;;
11675;SDS011;5894;42.768;23.404;2024-02-21T08:41:30;17.77;;;14.07;;
11675;SDS011;5894;42.768;23.404;2024-02-21T08:43:57;17.23;;;13.60;;
11675;SDS011;5894;42.768;23.404;2024-02-21T08:46:24;17.87;;;13.87;;
11675;SDS011;5894;42.768;23.404;2024-02-21T08:48:52;18.80;;;14.23;;
11675;SDS011;5894;42.768;23.404;2024-02-21T08:51:19;17.93;;;14.13;;
11675;SDS011;5894;42.768;23.404;2024-02-21T08:53:47;18.20;;;14.00;;
11675;SDS011;5894;42.768;23.404;2024-02-21T08:56:15;17.23;;;13.60;;
11675;SDS011;5894;42.768;23.404;2024-02-21T08:58:43;18.80;;;14.50;;
11675;SDS011;5894;42.768;23.404;2024-02-21T09:01:10;23.67;;;17.33;;
11675;SDS011;5894;42.768;23.404;2024-02-21T09:03:37;17.77;;;13.73;;
11675;SDS011;5894;42.768;23.404;2024-02-21T09:06:05;20.67;;;13.87;;
11675;SDS011;5894;42.768;23.404;2024-02-21T09:08:33;18.43;;;13.70;;
11675;SDS011;5894;42.768;23.404;2024-02-21T09:11:01;18.13;;;14.23;;
11675;SDS011;5894;42.768;23.404;2024-02-21T09:13:28;19.03;;;13.23;;
11675;SDS011;5894;42.768;23.404;2024-02-21T09:15:55;18.00;;;13.57;;
11675;SDS011;5894;42.768;23.404;2024-02-21T09:18:22;18.00;;;13.50;;
11675;SDS011;5894;42.768;23.404;2024-02-21T09:20:49;18.87;;;14.60;;
11675;SDS011;5894;42.768;23.404;2024-02-21T09:23:17;18.13;;;13.50;;
11675;SDS011;5894;42.768;23.404;2024-02-21T09:25:45;17.93;;;13.27;;
11675;SDS011;5894;42.768;23.404;2024-02-21T09:28:13;17.00;;;13.57;;
11675;SDS011;5894;42.768;23.404;2024-02-21T09:30:40;19.20;;;14.07;;
11675;SDS011;5894;42.768;23.404;2024-02-21T09:33:08;16.97;;;12.73;;
11675;SDS011;5894;42.768;23.404;2024-02-21T09:35:35;16.73;;;12.97;;
11675;SDS011;5894;42.768;23.404;2024-02-21T09:38:02;15.00;;;12.10;;
11675;SDS011;5894;42.768;23.404;2024-02-21T09:40:29;14.30;;;11.70;;
11675;SDS011;5894;42.768;23.404;2024-02-21T09:43:00;15.27;;;11.73;;
11675;SDS011;5894;42.768;23.404;2024-02-21T09:45:33;18.30;;;11.70;;
